Time;durP1;ratioP1;P1;durP2;ratioP2;P2;SDS_P1;SDS_P2;PMS_P1;PMS_P2;Temp;Humidity;BMP_temperature;BMP_pressure;BME280_temperature;BME280_humidity;BME280_pressure;Samples;Min_cycle;Max_cycle;Signal;HPM_P1;HPM_P2
2022/06/04 00:00:08;;;;;;;7.43;4.80;;;;;;;;;;7376446;19;20010;-75
2022/06/04 00:02:37;;;;;;;7.95;4.93;;;;;;;;;;7376244;19;20025;-74
2022/06/04 00:05:03;;;;;;;7.40;4.88;;;;;;;;;;7378307;19;20485;-74
2022/06/04 00:07:28;;;;;;;9.20;4.75;;;;;;;;;;7378976;19;20070;-74
2022/06/04 00:15:30;;;;;;;7.50;4.47;;;;;;;;;;7379471;19;20024;-75
2022/06/04 00:17:56;;;;;;;7.00;4.60;;;;;;;;;;7378059;19;20066;-75
2022/06/04 00:20:21;;;;;;;8.45;4.60;;;;;;;;;;7356395;19;20388;-75
2022/06/04 00:22:46;;;;;;;7.63;4.70;;;;;;;;;;7375433;19;20019;-75
2022/06/04 00:25:13;;;;;;;7.80;4.60;;;;;;;;;;7370719;19;20022;-74
2022/06/04 00:27:38;;;;;;;7.88;4.20;;;;;;;;;;7371528;19;19999;-74
2022/06/04 00:30:05;;;;;;;7.50;4.03;;;;;;;;;;7365391;19;20025;-74
2022/06/04 00:32:30;;;;;;;7.38;4.75;;;;;;;;;;7373599;19;20010;-74
2022/06/04 00:34:56;;;;;;;8.80;4.50;;;;;;;;;;7369654;19;21089;-76
2022/06/04 00:37:21;;;;;;;7.78;4.80;;;;;;;;;;7369120;19;20010;-75
2022/06/04 00:39:46;;;;;;;6.72;4.18;;;;;;;;;;7366793;19;20003;-75
2022/06/04 00:42:13;;;;;;;7.10;4.72;;;;;;;;;;7369398;19;20094;-76
2022/06/04 00:44:57;;;;;;;8.45;4.70;;;;;;;;;;7366493;19;20019;-75
2022/06/04 00:47:26;;;;;;;8.18;5.07;;;;;;;;;;7371821;19;20383;-76
2022/06/04 00:49:51;;;;;;;8.27;4.55;;;;;;;;;;7370399;19;20021;-75
2022/06/04 00:52:17;;;;;;;10.18;5.13;;;;;;;;;;7362793;19;20014;-75
2022/06/04 00:54:43;;;;;;;8.23;4.95;;;;;;;;;;7376776;19;20476;-74
2022/06/04 00:57:27;;;;;;;8.98;5.30;;;;;;;;;;7379292;19;20489;-74
2022/06/04 01:00:00;;;;;;;8.48;4.95;;;;;;;;;;7374819;19;20049;-74
2022/06/04 01:02:44;;;;;;;9.18;4.75;;;;;;;;;;7364508;19;20005;-75
2022/06/04 01:05:22;;;;;;;6.57;4.38;;;;;;;;;;7363909;19;20127;-75
2022/06/04 01:07:47;;;;;;;7.45;5.35;;;;;;;;;;7364188;19;20006;-76
2022/06/04 01:10:12;;;;;;;7.07;5.07;;;;;;;;;;7373349;19;20018;-74
2022/06/04 01:12:46;;;;;;;9.37;5.23;;;;;;;;;;7372292;19;20103;-75
2022/06/04 01:15:11;;;;;;;7.32;4.78;;;;;;;;;;7364629;19;20014;-75
2022/06/04 01:17:43;;;;;;;9.25;4.93;;;;;;;;;;7367453;19;20014;-74
2022/06/04 01:20:24;;;;;;;9.95;5.05;;;;;;;;;;7366514;19;20569;-74
2022/06/04 01:22:49;;;;;;;7.47;4.65;;;;;;;;;;7372750;19;20110;-74
2022/06/04 01:25:17;;;;;;;7.57;4.85;;;;;;;;;;7375190;19;20493;-75
2022/06/04 01:27:43;;;;;;;6.93;4.60;;;;;;;;;;7374944;19;20005;-75
2022/06/04 01:30:08;;;;;;;7.40;4.97;;;;;;;;;;7365067;19;20482;-74
2022/06/04 01:32:40;;;;;;;9.43;4.93;;;;;;;;;;7368573;19;20002;-74
2022/06/04 01:35:24;;;;;;;7.60;4.68;;;;;;;;;;7369689;19;20025;-74
2022/06/04 01:38:27;;;;;;;7.25;5.20;;;;;;;;;;7372212;19;19999;-74
2022/06/04 01:41:04;;;;;;;7.20;4.60;;;;;;;;;;7365043;19;20031;-74
2022/06/04 01:43:49;;;;;;;9.95;5.10;;;;;;;;;;7366606;19;20364;-74
2022/06/04 01:46:33;;;;;;;9.00;5.57;;;;;;;;;;7365531;19;20073;-74
2022/06/04 01:49:01;;;;;;;7.35;5.20;;;;;;;;;;7375702;19;20018;-76
2022/06/04 01:51:28;;;;;;;8.40;5.45;;;;;;;;;;7371057;19;20555;-74
2022/06/04 01:53:57;;;;;;;8.73;4.90;;;;;;;;;;7375107;19;20078;-75
2022/06/04 01:56:25;;;;;;;6.90;4.40;;;;;;;;;;7378204;19;20028;-75
2022/06/04 01:58:53;;;;;;;7.47;5.03;;;;;;;;;;7377565;19;20010;-74
2022/06/04 02:01:20;;;;;;;9.82;5.60;;;;;;;;;;7379817;19;20070;-74
2022/06/04 02:03:49;;;;;;;9.18;5.45;;;;;;;;;;7379152;19;20022;-75
2022/06/04 02:06:16;;;;;;;10.32;5.25;;;;;;;;;;7377594;19;20018;-76
2022/06/04 02:09:17;;;;;;;13.90;5.15;;;;;;;;;;7380016;19;20015;-77
2022/06/04 02:11:47;;;;;;;7.95;5.18;;;;;;;;;;7375631;19;20020;-76
2022/06/04 02:14:12;;;;;;;9.57;5.40;;;;;;;;;;7377246;19;20015;-74
2022/06/04 02:16:40;;;;;;;10.33;5.33;;;;;;;;;;7382184;19;20353;-74
2022/06/04 02:19:06;;;;;;;10.20;5.38;;;;;;;;;;7374210;19;20243;-75
2022/06/04 02:21:31;;;;;;;8.65;5.57;;;;;;;;;;7376101;19;20042;-75
2022/06/04 02:23:56;;;;;;;8.88;5.35;;;;;;;;;;7379183;19;20014;-74
2022/06/04 02:26:23;;;;;;;9.27;5.47;;;;;;;;;;7379710;19;20514;-74
2022/06/04 02:28:49;;;;;;;8.93;4.97;;;;;;;;;;7376834;19;20015;-74
2022/06/04 02:31:17;;;;;;;8.70;5.53;;;;;;;;;;7376692;19;20085;-76
2022/06/04 02:33:48;;;;;;;11.10;5.75;;;;;;;;;;7381358;19;20069;-74
2022/06/04 02:36:22;;;;;;;10.15;6.05;;;;;;;;;;7378807;19;20014;-74
2022/06/04 02:38:51;;;;;;;8.23;5.30;;;;;;;;;;7368896;19;20332;-75
2022/06/04 02:41:24;;;;;;;9.55;5.55;;;;;;;;;;7368844;19;20014;-74
2022/06/04 02:43:52;;;;;;;10.27;5.45;;;;;;;;;;7379661;19;20386;-75
2022/06/04 02:46:22;;;;;;;9.25;5.32;;;;;;;;;;7372954;19;20220;-76
2022/06/04 02:48:51;;;;;;;8.18;5.75;;;;;;;;;;7377313;19;20363;-74
2022/06/04 02:51:23;;;;;;;8.90;5.75;;;;;;;;;;7378555;19;20007;-74
2022/06/04 02:53:48;;;;;;;9.10;6.07;;;;;;;;;;7379682;19;20031;-74
2022/06/04 02:56:15;;;;;;;12.38;8.10;;;;;;;;;;7382839;19;19994;-74
2022/06/04 02:58:42;;;;;;;8.30;5.75;;;;;;;;;;7381249;19;20034;-75
2022/06/04 03:01:09;;;;;;;8.50;5.68;;;;;;;;;;7369457;19;20352;-74
2022/06/04 03:03:34;;;;;;;10.85;5.97;;;;;;;;;;7367841;19;20006;-74
2022/06/04 03:06:01;;;;;;;8.85;5.32;;;;;;;;;;7366643;19;20046;-74
2022/06/04 03:08:27;;;;;;;9.88;5.72;;;;;;;;;;7376027;19;20015;-75
2022/06/04 03:10:53;;;;;;;8.73;6.10;;;;;;;;;;7372925;19;20450;-74
2022/06/04 03:13:18;;;;;;;8.48;5.68;;;;;;;;;;7376142;19;20019;-75
2022/06/04 03:15:44;;;;;;;9.67;6.20;;;;;;;;;;7381462;19;20013;-74
2022/06/04 03:18:09;;;;;;;9.63;6.35;;;;;;;;;;7373997;19;20035;-76
2022/06/04 03:20:34;;;;;;;8.70;5.80;;;;;;;;;;7373423;19;20002;-76
2022/06/04 03:22:59;;;;;;;8.13;5.97;;;;;;;;;;7377006;19;20613;-74
2022/06/04 03:25:24;;;;;;;9.60;5.85;;;;;;;;;;7374504;19;20002;-74
2022/06/04 03:27:50;;;;;;;9.07;6.25;;;;;;;;;;7371802;19;20027;-75
2022/06/04 03:30:16;;;;;;;10.20;5.95;;;;;;;;;;7371704;19;20014;-75
2022/06/04 03:32:41;;;;;;;9.30;6.07;;;;;;;;;;7374882;19;20534;-74
2022/06/04 03:35:07;;;;;;;8.30;5.57;;;;;;;;;;7368055;19;20442;-75
2022/06/04 03:37:33;;;;;;;8.38;5.57;;;;;;;;;;7367332;19;20446;-75
2022/06/04 03:39:58;;;;;;;8.77;5.82;;;;;;;;;;7375321;19;20015;-74
2022/06/04 03:42:23;;;;;;;10.97;5.37;;;;;;;;;;7374644;19;20015;-75
2022/06/04 03:44:49;;;;;;;9.57;6.43;;;;;;;;;;7372011;19;20007;-75
2022/06/04 03:47:16;;;;;;;8.73;6.10;;;;;;;;;;7365730;19;20091;-75
2022/06/04 03:49:41;;;;;;;10.40;6.70;;;;;;;;;;7364418;19;20010;-74
2022/06/04 03:52:07;;;;;;;12.13;7.13;;;;;;;;;;7374246;19;20562;-75
2022/06/04 04:00:00;;;;;;;11.88;7.55;;;;;;;;;;7370303;19;20494;-75
2022/06/04 04:02:25;;;;;;;11.20;8.50;;;;;;;;;;7373782;19;20002;-76
2022/06/04 04:04:50;;;;;;;13.68;8.35;;;;;;;;;;7368487;19;20255;-74
2022/06/04 04:07:15;;;;;;;14.30;7.85;;;;;;;;;;7372858;19;20005;-74
2022/06/04 04:09:41;;;;;;;11.13;7.57;;;;;;;;;;7370016;19;20056;-75
2022/06/04 04:12:06;;;;;;;9.85;6.22;;;;;;;;;;7373206;19;20360;-74
2022/06/04 04:14:31;;;;;;;12.82;7.32;;;;;;;;;;7372766;19;20014;-75
2022/06/04 04:16:57;;;;;;;13.83;8.03;;;;;;;;;;7364706;19;20016;-74
2022/06/04 04:19:26;;;;;;;10.43;6.75;;;;;;;;;;7370380;19;20492;-74
2022/06/04 04:21:51;;;;;;;11.38;7.50;;;;;;;;;;7360771;19;20565;-75
2022/06/04 04:24:16;;;;;;;11.73;6.72;;;;;;;;;;7368957;19;20483;-75
2022/06/04 04:26:42;;;;;;;19.87;6.60;;;;;;;;;;7369745;19;19995;-76
2022/06/04 04:29:07;;;;;;;8.23;5.90;;;;;;;;;;7364787;19;20345;-75
2022/06/04 04:31:34;;;;;;;8.80;6.82;;;;;;;;;;7362624;19;20014;-76
2022/06/04 04:34:00;;;;;;;8.35;6.20;;;;;;;;;;7364162;19;20146;-75
2022/06/04 04:36:30;;;;;;;7.93;5.65;;;;;;;;;;7361857;19;20500;-75
2022/06/04 04:38:55;;;;;;;9.38;6.00;;;;;;;;;;7362991;19;20018;-75
2022/06/04 04:41:20;;;;;;;13.33;7.50;;;;;;;;;;7363038;19;20009;-76
2022/06/04 04:43:45;;;;;;;9.40;6.30;;;;;;;;;;7361459;19;20014;-75
2022/06/04 04:46:11;;;;;;;8.23;5.70;;;;;;;;;;7356842;19;20009;-75
2022/06/04 04:48:36;;;;;;;9.18;6.15;;;;;;;;;;7362776;19;20255;-74
2022/06/04 04:51:02;;;;;;;8.60;6.43;;;;;;;;;;7363608;19;20510;-75
2022/06/04 04:53:27;;;;;;;8.68;5.82;;;;;;;;;;7363497;19;20755;-75
2022/06/04 04:55:53;;;;;;;9.65;6.55;;;;;;;;;;7367601;19;20373;-74
2022/06/04 04:58:18;;;;;;;11.07;6.25;;;;;;;;;;7365736;19;20018;-76
2022/06/04 05:00:44;;;;;;;9.70;6.10;;;;;;;;;;7367068;19;20408;-75
2022/06/04 05:03:09;;;;;;;8.50;6.28;;;;;;;;;;7359332;19;20013;-74
2022/06/04 05:05:35;;;;;;;11.38;6.30;;;;;;;;;;7362225;19;20018;-74
2022/06/04 05:08:00;;;;;;;10.60;7.22;;;;;;;;;;7370561;19;20010;-76
2022/06/04 05:10:25;;;;;;;9.77;6.80;;;;;;;;;;7357654;19;20058;-75
2022/06/04 05:12:54;;;;;;;9.95;7.40;;;;;;;;;;7364056;19;20298;-76
2022/06/04 05:15:20;;;;;;;8.95;6.75;;;;;;;;;;7366244;19;20609;-74
2022/06/04 05:17:45;;;;;;;13.25;7.10;;;;;;;;;;7363028;19;20010;-74
2022/06/04 05:20:10;;;;;;;9.38;6.47;;;;;;;;;;7364866;19;20031;-75
2022/06/04 05:22:36;;;;;;;9.30;6.60;;;;;;;;;;7369990;19;20021;-74
2022/06/04 05:25:01;;;;;;;10.68;6.32;;;;;;;;;;7371463;19;20013;-76
2022/06/04 05:27:26;;;;;;;10.30;7.20;;;;;;;;;;7366361;19;20041;-75
2022/06/04 05:29:52;;;;;;;9.52;7.25;;;;;;;;;;7356035;19;20453;-74
2022/06/04 05:32:17;;;;;;;9.10;6.97;;;;;;;;;;7362851;19;20011;-75
2022/06/04 05:34:42;;;;;;;12.10;6.83;;;;;;;;;;7360148;19;20251;-75
2022/06/04 05:37:07;;;;;;;12.38;7.97;;;;;;;;;;7364419;19;20263;-76
2022/06/04 05:39:33;;;;;;;11.50;7.05;;;;;;;;;;7357703;19;19999;-76
2022/06/04 05:41:59;;;;;;;12.48;8.23;;;;;;;;;;7365336;19;20014;-75
2022/06/04 05:44:25;;;;;;;13.32;8.05;;;;;;;;;;7362070;19;20003;-74
2022/06/04 05:46:50;;;;;;;13.10;8.52;;;;;;;;;;7362840;19;20001;-75
2022/06/04 05:49:15;;;;;;;10.60;8.20;;;;;;;;;;7355338;19;20011;-76
2022/06/04 05:51:42;;;;;;;15.15;8.20;;;;;;;;;;7355429;19;20235;-76
2022/06/04 05:54:08;;;;;;;11.40;8.05;;;;;;;;;;7364690;19;20003;-74
2022/06/04 05:56:35;;;;;;;12.52;8.75;;;;;;;;;;7366922;19;20002;-75
2022/06/04 05:59:01;;;;;;;13.68;7.97;;;;;;;;;;7363911;19;20647;-75
2022/06/04 06:01:27;;;;;;;11.43;8.60;;;;;;;;;;7361263;19;20015;-76
2022/06/04 06:03:53;;;;;;;13.65;8.85;;;;;;;;;;7359391;19;20017;-74
2022/06/04 06:06:22;;;;;;;14.68;9.73;;;;;;;;;;7355130;19;20006;-75
2022/06/04 06:08:48;;;;;;;15.30;9.30;;;;;;;;;;7365249;19;20046;-77
2022/06/04 06:11:14;;;;;;;12.77;8.10;;;;;;;;;;7366124;19;20463;-73
2022/06/04 06:13:41;;;;;;;12.25;8.00;;;;;;;;;;7362914;19;20022;-76
2022/06/04 06:16:11;;;;;;;14.70;8.40;;;;;;;;;;7367702;19;20031;-76
2022/06/04 06:18:36;;;;;;;11.30;7.82;;;;;;;;;;7362766;19;20006;-74
2022/06/04 06:21:05;;;;;;;11.48;8.20;;;;;;;;;;7365023;19;20018;-75
2022/06/04 06:23:31;;;;;;;13.25;8.43;;;;;;;;;;7364738;19;20039;-75
2022/06/04 06:25:56;;;;;;;13.30;8.40;;;;;;;;;;7358402;19;20466;-76
2022/06/04 06:28:21;;;;;;;16.33;8.23;;;;;;;;;;7365528;19;21019;-74
2022/06/04 06:30:48;;;;;;;13.40;8.52;;;;;;;;;;7360177;19;20002;-74
2022/06/04 06:33:13;;;;;;;10.68;7.40;;;;;;;;;;7369382;19;20528;-75
2022/06/04 06:35:39;;;;;;;10.63;7.23;;;;;;;;;;7350009;19;19998;-75
2022/06/04 06:38:04;;;;;;;9.30;6.30;;;;;;;;;;7369753;19;19995;-76
2022/06/04 06:40:29;;;;;;;9.15;5.80;;;;;;;;;;7358930;19;21159;-75
2022/06/04 06:42:54;;;;;;;10.27;6.07;;;;;;;;;;7370111;19;20019;-76
2022/06/04 06:45:19;;;;;;;9.30;5.70;;;;;;;;;;7366182;19;20549;-76
2022/06/04 06:47:45;;;;;;;9.57;5.80;;;;;;;;;;7380367;19;20010;-75
2022/06/04 06:50:12;;;;;;;8.03;6.03;;;;;;;;;;7368737;19;20238;-75
2022/06/04 06:52:37;;;;;;;7.65;5.28;;;;;;;;;;7371379;19;20268;-75
2022/06/04 06:55:02;;;;;;;11.70;5.97;;;;;;;;;;7374317;19;20077;-75
2022/06/04 06:57:28;;;;;;;9.00;6.07;;;;;;;;;;7371839;19;20303;-75
2022/06/04 06:59:55;;;;;;;9.63;5.03;;;;;;;;;;7376539;19;20020;-74
2022/06/04 07:02:20;;;;;;;9.18;6.10;;;;;;;;;;7366180;19;20236;-75
2022/06/04 07:04:45;;;;;;;13.00;5.60;;;;;;;;;;7375148;19;20032;-75
2022/06/04 07:07:10;;;;;;;10.80;5.65;;;;;;;;;;7376641;19;20256;-76
2022/06/04 07:09:37;;;;;;;8.90;5.43;;;;;;;;;;7365912;19;20477;-76
2022/06/04 07:12:03;;;;;;;9.60;5.40;;;;;;;;;;7380496;19;20018;-75
2022/06/04 07:14:29;;;;;;;7.60;4.80;;;;;;;;;;7379069;19;20565;-75
2022/06/04 07:16:55;;;;;;;8.43;4.82;;;;;;;;;;7372170;19;19998;-74
2022/06/04 07:19:21;;;;;;;9.35;4.70;;;;;;;;;;7372020;19;20014;-74
2022/06/04 07:21:47;;;;;;;7.32;4.50;;;;;;;;;;7368615;19;20465;-75
2022/06/04 07:24:12;;;;;;;9.93;5.07;;;;;;;;;;7368566;19;20017;-75
2022/06/04 07:26:37;;;;;;;8.33;4.73;;;;;;;;;;7374768;19;20035;-75
2022/06/04 07:29:03;;;;;;;11.07;4.75;;;;;;;;;;7380367;19;20251;-75
2022/06/04 07:31:29;;;;;;;9.35;4.63;;;;;;;;;;7369529;19;20027;-75
2022/06/04 07:33:55;;;;;;;8.25;4.68;;;;;;;;;;7360497;19;20010;-76
2022/06/04 07:36:28;;;;;;;6.97;4.78;;;;;;;;;;7360629;19;20025;-76
2022/06/04 07:38:54;;;;;;;8.95;5.22;;;;;;;;;;7370183;19;20018;-75
2022/06/04 07:41:20;;;;;;;7.28;5.03;;;;;;;;;;7364141;19;20008;-75
2022/06/04 07:43:45;;;;;;;12.48;5.57;;;;;;;;;;7370775;19;20400;-75
2022/06/04 07:46:11;;;;;;;6.93;4.95;;;;;;;;;;7323633;19;20352;-76
2022/06/04 07:48:36;;;;;;;11.23;6.20;;;;;;;;;;7369477;19;20461;-76
2022/06/04 07:51:02;;;;;;;12.20;6.93;;;;;;;;;;7370887;19;20741;-75
2022/06/04 07:53:27;;;;;;;11.93;6.63;;;;;;;;;;7347481;19;20259;-76
2022/06/04 07:55:52;;;;;;;10.45;6.15;;;;;;;;;;7374009;19;20023;-75
2022/06/04 07:58:18;;;;;;;11.20;5.37;;;;;;;;;;7363144;19;20021;-75
2022/06/04 08:00:43;;;;;;;10.30;5.87;;;;;;;;;;7367728;19;20021;-75
2022/06/04 08:03:08;;;;;;;10.40;6.47;;;;;;;;;;7359880;19;20010;-75
2022/06/04 08:05:34;;;;;;;8.30;5.60;;;;;;;;;;7362788;19;20252;-75
2022/06/04 08:07:59;;;;;;;11.45;6.00;;;;;;;;;;7364338;19;20182;-75
2022/06/04 08:10:24;;;;;;;10.57;6.67;;;;;;;;;;7366117;19;19995;-75
2022/06/04 08:12:51;;;;;;;9.07;5.80;;;;;;;;;;7372431;19;20867;-75
2022/06/04 08:15:16;;;;;;;8.50;5.63;;;;;;;;;;7370411;19;20247;-75
2022/06/04 08:17:41;;;;;;;10.10;5.80;;;;;;;;;;7376793;19;20475;-75
2022/06/04 08:20:07;;;;;;;10.73;5.32;;;;;;;;;;7368790;19;20010;-76
2022/06/04 08:22:32;;;;;;;8.80;4.90;;;;;;;;;;7367745;19;20534;-75
2022/06/04 08:24:58;;;;;;;9.20;5.68;;;;;;;;;;7373468;19;20018;-75
2022/06/04 08:27:23;;;;;;;7.45;5.20;;;;;;;;;;7365005;19;20010;-75
2022/06/04 08:29:49;;;;;;;8.57;4.68;;;;;;;;;;7358417;19;20010;-77
2022/06/04 08:32:14;;;;;;;7.00;4.40;;;;;;;;;;7370574;19;20003;-76
2022/06/04 08:34:40;;;;;;;8.40;4.30;;;;;;;;;;7371602;19;20018;-76
2022/06/04 08:37:06;;;;;;;6.97;3.88;;;;;;;;;;7377804;19;20243;-75
2022/06/04 08:39:31;;;;;;;6.47;3.63;;;;;;;;;;7374434;19;20003;-75
2022/06/04 08:42:16;;;;;;;6.07;3.20;;;;;;;;;;7364957;19;20561;-75
2022/06/04 08:44:41;;;;;;;8.77;3.83;;;;;;;;;;7374424;19;20499;-75
2022/06/04 08:47:07;;;;;;;7.60;3.67;;;;;;;;;;7371896;19;20022;-75
2022/06/04 08:49:34;;;;;;;5.75;3.40;;;;;;;;;;7367929;19;20018;-76
2022/06/04 08:52:00;;;;;;;8.48;3.90;;;;;;;;;;7376222;19;20010;-75
2022/06/04 08:59:56;;;;;;;7.72;4.28;;;;;;;;;;7376194;19;19931;-75
2022/06/04 09:02:39;;;;;;;10.05;4.88;;;;;;;;;;7381406;19;20498;-75
2022/06/04 09:05:13;;;;;;;8.95;4.68;;;;;;;;;;7376054;19;20031;-74
2022/06/04 09:07:47;;;;;;;6.28;3.05;;;;;;;;;;7367336;19;20363;-75
2022/06/04 09:10:21;;;;;;;7.13;3.30;;;;;;;;;;7378011;19;20026;-74
2022/06/04 09:12:53;;;;;;;6.18;3.70;;;;;;;;;;7380951;19;20038;-75
2022/06/04 09:15:21;;;;;;;5.80;3.22;;;;;;;;;;7381600;19;20006;-75
2022/06/04 09:17:50;;;;;;;6.10;3.08;;;;;;;;;;7377788;19;20312;-75
2022/06/04 09:20:36;;;;;;;7.03;3.20;;;;;;;;;;7373927;19;20014;-75
2022/06/04 09:23:11;;;;;;;5.82;2.83;;;;;;;;;;7380210;19;20317;-75
2022/06/04 09:25:51;;;;;;;4.95;2.00;;;;;;;;;;7378590;19;19998;-75
2022/06/04 09:28:23;;;;;;;5.57;2.65;;;;;;;;;;7376880;19;20026;-75
2022/06/04 09:31:00;;;;;;;6.15;2.55;;;;;;;;;;7378090;19;20114;-75
2022/06/04 09:33:40;;;;;;;5.55;2.92;;;;;;;;;;7374314;19;20557;-75
2022/06/04 09:36:10;;;;;;;8.98;1.90;;;;;;;;;;7377700;19;20015;-75
2022/06/04 09:38:35;;;;;;;5.85;2.28;;;;;;;;;;7376581;19;20014;-75
2022/06/04 09:41:03;;;;;;;4.72;2.40;;;;;;;;;;7378877;19;20471;-75
2022/06/04 09:43:28;;;;;;;5.60;2.38;;;;;;;;;;7374715;19;20010;-74
2022/06/04 09:45:55;;;;;;;4.38;2.10;;;;;;;;;;7374935;19;20018;-74
2022/06/04 09:48:29;;;;;;;4.47;2.35;;;;;;;;;;7378288;19;20607;-75
2022/06/04 09:50:56;;;;;;;4.57;1.98;;;;;;;;;;7377887;19;20019;-75
2022/06/04 09:53:23;;;;;;;5.80;2.30;;;;;;;;;;7376886;19;20515;-74
2022/06/04 09:55:51;;;;;;;5.30;2.20;;;;;;;;;;7378780;19;20007;-76
2022/06/04 09:58:21;;;;;;;3.78;1.73;;;;;;;;;;7377026;19;20364;-75
2022/06/04 10:01:00;;;;;;;7.35;2.47;;;;;;;;;;7373341;19;20018;-75
2022/06/04 10:03:26;;;;;;;7.55;1.92;;;;;;;;;;7374027;19;20011;-74
2022/06/04 10:05:54;;;;;;;6.38;2.00;;;;;;;;;;7372189;19;20011;-74
2022/06/04 10:08:23;;;;;;;10.23;2.75;;;;;;;;;;7376310;19;20007;-75
2022/06/04 10:10:49;;;;;;;6.28;2.10;;;;;;;;;;7379421;19;20003;-74
2022/06/04 10:16:14;;;;;;;5.18;2.00;;;;;;;;;;7380297;19;20020;-74
2022/06/04 10:18:39;;;;;;;5.07;2.20;;;;;;;;;;7380163;19;20011;-75
2022/06/04 10:21:06;;;;;;;5.73;2.03;;;;;;;;;;7365055;19;20485;-76
2022/06/04 10:23:41;;;;;;;7.10;2.08;;;;;;;;;;7383224;19;20421;-75
2022/06/04 10:26:09;;;;;;;6.13;2.50;;;;;;;;;;7378663;19;20011;-75
2022/06/04 10:28:57;;;;;;;4.45;2.33;;;;;;;;;;7381981;19;20022;-74
2022/06/04 10:31:31;;;;;;;6.30;2.42;;;;;;;;;;7382719;19;20031;-74
2022/06/04 10:34:01;;;;;;;3.95;2.00;;;;;;;;;;7385066;19;20019;-74
2022/06/04 10:36:47;;;;;;;4.28;1.95;;;;;;;;;;7380460;19;20026;-74
2022/06/04 10:39:21;;;;;;;4.47;2.15;;;;;;;;;;7385000;19;20059;-74
2022/06/04 10:41:46;;;;;;;5.68;2.20;;;;;;;;;;7385221;19;20015;-75
2022/06/04 10:44:26;;;;;;;6.03;2.30;;;;;;;;;;7384798;19;20015;-75
2022/06/04 10:46:57;;;;;;;4.72;2.08;;;;;;;;;;7385391;19;20013;-75
2022/06/04 10:49:25;;;;;;;7.60;2.40;;;;;;;;;;7383677;19;20018;-75
2022/06/04 10:52:09;;;;;;;4.30;2.00;;;;;;;;;;7380143;19;20003;-75
2022/06/04 10:54:39;;;;;;;9.25;2.28;;;;;;;;;;7384706;19;20015;-75
2022/06/04 10:57:04;;;;;;;4.13;2.00;;;;;;;;;;7385813;19;20018;-75
2022/06/04 10:59:48;;;;;;;5.07;2.10;;;;;;;;;;7386070;19;20343;-74
2022/06/04 11:02:23;;;;;;;4.80;2.20;;;;;;;;;;7378563;19;20046;-76
2022/06/04 11:05:00;;;;;;;5.20;2.20;;;;;;;;;;7381424;19;20589;-75
2022/06/04 11:07:34;;;;;;;4.47;2.20;;;;;;;;;;7382017;19;20082;-75
2022/06/04 11:10:02;;;;;;;4.70;2.20;;;;;;;;;;7384568;19;20007;-74
2022/06/04 11:12:40;;;;;;;6.07;2.17;;;;;;;;;;7378273;19;20352;-75
2022/06/04 11:15:17;;;;;;;7.63;2.33;;;;;;;;;;7378183;19;20335;-74
2022/06/04 11:17:52;;;;;;;5.22;2.17;;;;;;;;;;7384588;19;20019;-75
2022/06/04 11:20:20;;;;;;;5.90;2.30;;;;;;;;;;7381333;19;20018;-75
2022/06/04 11:22:53;;;;;;;8.32;2.58;;;;;;;;;;7383974;19;20014;-74
2022/06/04 11:25:29;;;;;;;4.88;2.25;;;;;;;;;;7383082;19;20030;-75
2022/06/04 11:28:00;;;;;;;5.05;2.30;;;;;;;;;;7379030;19;20501;-74
2022/06/04 11:30:29;;;;;;;6.47;2.20;;;;;;;;;;7382529;19;20002;-75
2022/06/04 11:33:15;;;;;;;5.85;2.40;;;;;;;;;;7386021;19;20020;-75
2022/06/04 11:35:46;;;;;;;5.47;2.08;;;;;;;;;;7379565;19;20043;-74
2022/06/04 11:38:27;;;;;;;5.75;2.20;;;;;;;;;;7383694;19;20010;-75
2022/06/04 11:40:58;;;;;;;6.18;2.20;;;;;;;;;;7384275;19;20549;-75
2022/06/04 11:43:26;;;;;;;5.43;2.20;;;;;;;;;;7383241;19;20028;-75
2022/06/04 11:46:00;;;;;;;6.68;2.45;;;;;;;;;;7378776;19;20022;-74
2022/06/04 11:48:26;;;;;;;5.10;2.22;;;;;;;;;;7377054;19;20090;-75
2022/06/04 11:50:58;;;;;;;4.93;1.80;;;;;;;;;;7381121;19;20491;-73
2022/06/04 11:53:30;;;;;;;9.48;2.10;;;;;;;;;;7381869;19;20012;-73
2022/06/04 11:56:00;;;;;;;4.30;2.10;;;;;;;;;;7381362;19;20034;-75
2022/06/04 11:58:28;;;;;;;4.47;2.13;;;;;;;;;;7380420;19;20010;-74
2022/06/04 12:00:57;;;;;;;6.90;2.22;;;;;;;;;;7372410;19;20032;-74
2022/06/04 12:03:35;;;;;;;7.30;2.53;;;;;;;;;;7383840;19;20103;-75
2022/06/04 12:06:10;;;;;;;5.90;2.15;;;;;;;;;;7377015;19;20026;-74
2022/06/04 12:08:41;;;;;;;4.88;2.28;;;;;;;;;;7383563;19;20015;-75
2022/06/04 12:11:16;;;;;;;4.18;2.05;;;;;;;;;;7381802;19;20010;-74
2022/06/04 12:13:48;;;;;;;5.38;2.75;;;;;;;;;;7384893;19;20029;-74
2022/06/04 12:16:13;;;;;;;8.05;2.13;;;;;;;;;;7384524;19;20007;-74
2022/06/04 12:18:45;;;;;;;4.97;2.43;;;;;;;;;;7381695;19;20009;-74
2022/06/04 12:24:16;;;;;;;4.38;2.10;;;;;;;;;;7381533;19;20008;-74
2022/06/04 12:26:47;;;;;;;6.07;2.30;;;;;;;;;;7382357;19;20017;-74
2022/06/04 12:29:27;;;;;;;4.30;2.10;;;;;;;;;;7380506;19;20023;-74
2022/06/04 12:31:57;;;;;;;5.03;2.63;;;;;;;;;;7384104;19;20025;-74
2022/06/04 12:34:27;;;;;;;6.35;2.85;;;;;;;;;;7375270;19;20014;-74
2022/06/04 12:36:53;;;;;;;8.60;2.35;;;;;;;;;;7379855;19;20037;-75
2022/06/04 12:39:23;;;;;;;5.07;2.10;;;;;;;;;;7372234;19;20959;-75
2022/06/04 12:41:50;;;;;;;4.78;2.33;;;;;;;;;;7379795;19;20018;-76
2022/06/04 12:44:19;;;;;;;5.10;2.10;;;;;;;;;;7382573;19;20010;-75
2022/06/04 12:46:46;;;;;;;7.05;2.30;;;;;;;;;;7380814;19;20545;-75
2022/06/04 12:49:21;;;;;;;4.43;1.80;;;;;;;;;;7376793;19;20022;-75
2022/06/04 12:51:56;;;;;;;4.10;1.83;;;;;;;;;;7372537;19;20012;-75
